createdAt,value
2023-02-19T00:00:43.036Z,100255.69
2023-02-19T00:06:12.802Z,100270.31
2023-02-19T00:11:21.722Z,100268.56
2023-02-19T00:16:30.784Z,100257.41
2023-02-19T00:21:37.352Z,100248.81
2023-02-19T00:26:45.879Z,100250.53
2023-02-19T00:31:53.865Z,100245.38
2023-02-19T00:37:00.293Z,100241.06
2023-02-19T00:42:06.612Z,100240.22
2023-02-19T00:47:14.644Z,100246.22
2023-02-19T00:52:20.813Z,100248.81
2023-02-19T00:57:27.277Z,100244.50
2023-02-19T01:02:35.319Z,100244.50
2023-02-19T01:07:41.891Z,100240.22
2023-02-19T01:12:49.382Z,100235.06
2023-02-19T01:17:57.248Z,100237.63
2023-02-19T01:23:03.804Z,100235.06
2023-02-19T01:28:10.972Z,100237.63
2023-02-19T01:33:18.823Z,100241.06
2023-02-19T01:38:25.149Z,100246.22
2023-02-19T01:43:34.382Z,100249.66
2023-02-19T01:48:42.929Z,100246.22
2023-02-19T01:53:55.550Z,100236.78
2023-02-19T01:59:02.821Z,100234.19
2023-02-19T02:04:12.525Z,100218.72
2023-02-19T02:09:37.830Z,100224.75
2023-02-19T02:14:49.269Z,100224.75
2023-02-19T02:20:22.290Z,100231.63
2023-02-19T02:26:05.223Z,100240.22
2023-02-19T02:31:18.621Z,100246.25
2023-02-19T02:36:30.719Z,100243.66
2023-02-19T02:41:43.158Z,100236.78
2023-02-19T02:46:51.784Z,100241.94
2023-02-19T02:52:00.040Z,100229.91
2023-02-19T02:57:09.589Z,100224.75
2023-02-19T03:02:30.266Z,100220.47
2023-02-19T03:07:44.959Z,100217.03
2023-02-19T03:13:13.975Z,100214.47
2023-02-19T03:18:40.930Z,100226.47
2023-02-19T03:24:06.994Z,100228.19
2023-02-19T03:29:27.412Z,100223.00
2023-02-19T03:34:50.553Z,100215.28
2023-02-19T03:39:58.094Z,100205.81
2023-02-19T03:45:36.027Z,100216.94
2023-02-19T03:50:52.144Z,100201.50
2023-02-19T03:56:12.969Z,100205.81
2023-02-19T04:01:26.377Z,100206.66
2023-02-19T04:06:36.587Z,100204.06
2023-02-19T04:11:43.436Z,100200.63
2023-02-19T04:16:56.920Z,100187.78
2023-02-19T04:22:06.606Z,100186.03
2023-02-19T04:27:13.145Z,100189.47
2023-02-19T04:32:19.448Z,100173.16
2023-02-19T04:37:27.212Z,100181.75
2023-02-19T04:42:33.692Z,100193.75
2023-02-19T04:47:40.013Z,100192.03
2023-02-19T04:52:47.724Z,100191.16
2023-02-19T04:57:54.229Z,100181.72
2023-02-19T05:03:00.576Z,100180.88
2023-02-19T05:08:08.796Z,100171.44
2023-02-19T05:13:15.250Z,100178.31
2023-02-19T05:18:21.472Z,100171.44
2023-02-19T05:23:30.219Z,100181.72
2023-02-19T05:28:37.082Z,100167.13
2023-02-19T05:33:44.623Z,100174.88
2023-02-19T05:38:55.653Z,100173.16
2023-02-19T05:44:02.396Z,100168.88
2023-02-19T05:49:08.861Z,100176.63
2023-02-19T05:54:16.650Z,100169.75
2023-02-19T05:59:25.628Z,100166.28
2023-02-19T06:04:32.046Z,100168.03
2023-02-19T06:09:39.883Z,100178.31
2023-02-19T06:14:47.714Z,100176.59
2023-02-19T06:19:54.308Z,100184.31
2023-02-19T06:25:02.151Z,100186.03
2023-02-19T06:30:11.362Z,100182.63
2023-02-19T06:35:17.811Z,100177.47
2023-02-19T06:40:25.425Z,100176.63
2023-02-19T06:45:34.513Z,100178.34
2023-02-19T06:50:40.974Z,100180.91
2023-02-19T06:55:58.829Z,100197.22
2023-02-19T07:01:05.620Z,100202.38
2023-02-19T07:06:12.277Z,100205.81
2023-02-19T07:11:20.453Z,100210.97
2023-02-19T07:16:27.934Z,100213.56
2023-02-19T07:21:38.018Z,100214.44
2023-02-19T07:26:45.801Z,100220.44
2023-02-19T07:31:52.256Z,100219.59
2023-02-19T07:36:58.628Z,100211.00
2023-02-19T07:42:06.752Z,100223.03
2023-02-19T07:47:13.277Z,100218.75
2023-02-19T07:52:19.342Z,100221.31
2023-02-19T07:57:29.198Z,100217.88
2023-02-19T08:02:53.012Z,100219.59
2023-02-19T08:08:00.271Z,100227.34
2023-02-19T08:13:33.968Z,100235.94
2023-02-19T08:18:40.401Z,100237.66
2023-02-19T08:23:50.622Z,100249.69
2023-02-19T08:28:59.403Z,100242.81
2023-02-19T08:34:06.005Z,100248.81
2023-02-19T08:39:12.495Z,100246.25
2023-02-19T08:44:20.595Z,100249.69
2023-02-19T08:49:28.935Z,100247.13
2023-02-19T08:54:37.150Z,100247.97
2023-02-19T08:59:45.115Z,100250.53
2023-02-19T09:04:51.659Z,100255.69
2023-02-19T09:09:58.946Z,100258.25
2023-02-19T09:15:07.832Z,100254.81
2023-02-19T09:20:14.598Z,100254.81
2023-02-19T09:25:20.915Z,100259.97
2023-02-19T09:30:28.882Z,100270.28
2023-02-19T09:35:35.550Z,100266.84
2023-02-19T09:40:42.432Z,100262.53
2023-02-19T09:46:04.066Z,100257.38
2023-02-19T09:51:12.829Z,100254.75
2023-02-19T09:56:20.833Z,100271.94
2023-02-19T10:01:35.913Z,100268.50
2023-02-19T10:06:43.006Z,100275.38
2023-02-19T10:11:51.762Z,100276.22
2023-02-19T10:17:03.742Z,100282.22
2023-02-19T10:22:14.176Z,100273.63
2023-02-19T10:27:22.624Z,100277.91
2023-02-19T10:32:31.594Z,100279.63
2023-02-19T10:37:43.663Z,100287.34
2023-02-19T10:42:53.253Z,100301.97
2023-02-19T10:48:03.269Z,100294.22
2023-02-19T10:53:24.684Z,100301.13
2023-02-19T10:58:34.784Z,100305.41
2023-02-19T11:03:43.836Z,100311.44
2023-02-19T11:09:02.834Z,100304.56
2023-02-19T11:14:20.122Z,100312.28
2023-02-19T11:19:34.841Z,100312.28
2023-02-19T11:24:42.738Z,100315.72
2023-02-19T11:29:49.145Z,100317.44
2023-02-19T11:35:24.609Z,100317.41
2023-02-19T11:40:46.067Z,100320.00
2023-02-19T11:46:04.600Z,100321.69
2023-02-19T11:51:32.122Z,100323.41
2023-02-19T11:56:41.211Z,100323.41
2023-02-19T12:02:48.628Z,100330.25
2023-02-19T12:08:49.332Z,100332.84
2023-02-19T12:14:46.447Z,100341.47
2023-02-19T12:20:13.930Z,100343.16
2023-02-19T12:25:51.498Z,100341.44
2023-02-19T12:31:44.807Z,100355.22
2023-02-19T12:37:10.739Z,100368.13
2023-02-19T12:42:47.219Z,100368.09
2023-02-19T12:48:06.373Z,100372.38
2023-02-19T12:53:33.008Z,100378.41
2023-02-19T12:58:49.846Z,100398.25
2023-02-19T13:04:30.111Z,100387.09
2023-02-19T13:09:43.240Z,100386.25
2023-02-19T13:14:59.417Z,100390.56
2023-02-19T13:20:21.336Z,100402.63
2023-02-19T13:25:43.174Z,100398.34
2023-02-19T13:31:18.892Z,100392.31
2023-02-19T13:36:29.519Z,100394.91
2023-02-19T13:41:42.476Z,100404.38
2023-02-19T13:47:01.371Z,100412.97
2023-02-19T13:52:42.609Z,100415.53
2023-02-19T13:57:50.096Z,100425.88
2023-02-19T14:03:30.611Z,100431.00
2023-02-19T14:09:01.255Z,100446.50
2023-02-19T14:14:36.470Z,100453.41
2023-02-19T14:19:56.042Z,100453.41
2023-02-19T14:25:07.500Z,100455.16
2023-02-19T14:30:16.530Z,100455.13
2023-02-19T14:35:30.789Z,100465.47
2023-02-19T14:40:42.823Z,100474.13
2023-02-19T14:46:00.539Z,100470.66
2023-02-19T14:51:18.589Z,100476.69
2023-02-19T14:56:32.833Z,100488.75
2023-02-19T15:01:42.716Z,100494.78
2023-02-19T15:06:58.132Z,100495.63
2023-02-19T15:12:08.110Z,100495.66
2023-02-19T15:17:25.284Z,100499.13
2023-02-19T15:22:37.424Z,100512.03
2023-02-19T15:27:46.339Z,100513.75
2023-02-19T15:33:01.358Z,100525.78
2023-02-19T15:38:14.696Z,100532.66
2023-02-19T15:43:33.454Z,100536.13
2023-02-19T15:48:48.712Z,100539.56
2023-02-19T15:54:04.116Z,100540.41
2023-02-19T16:04:55.841Z,100553.31
2023-02-19T16:10:25.445Z,100557.59
2023-02-19T16:15:36.547Z,100574.81
2023-02-19T16:20:50.752Z,100590.28
2023-02-19T16:26:05.056Z,100603.19
2023-02-19T16:31:16.240Z,100613.50
2023-02-19T16:36:40.099Z,100625.56
2023-02-19T16:42:17.669Z,100626.41
2023-02-19T16:47:39.209Z,100629.84
2023-02-19T16:52:58.710Z,100635.84
2023-02-19T16:58:10.695Z,100637.56
2023-02-19T17:03:24.178Z,100634.94
2023-02-19T17:08:39.975Z,100658.16
2023-02-19T17:13:51.616Z,100665.84
2023-02-19T17:19:01.545Z,100678.75
2023-02-19T17:24:11.672Z,100683.91
2023-02-19T17:29:29.702Z,100683.84
2023-02-19T17:34:39.162Z,100694.13
2023-02-19T17:39:48.491Z,100705.31
2023-02-19T17:45:00.338Z,100705.25
2023-02-19T17:50:19.204Z,100718.09
2023-02-19T17:55:28.514Z,100732.69
2023-02-19T18:00:39.914Z,100743.84
2023-02-19T18:05:50.912Z,100742.09
2023-02-19T18:11:07.128Z,100749.75
2023-02-19T18:16:24.561Z,100752.28
2023-02-19T18:21:36.788Z,100762.59
2023-02-19T18:26:48.579Z,100768.53
2023-02-19T18:32:01.293Z,100765.06
2023-02-19T18:37:11.104Z,100772.75
2023-02-19T18:42:21.590Z,100784.75
2023-02-19T18:47:33.528Z,100788.13
2023-02-19T18:52:44.243Z,100794.97
2023-02-19T18:57:54.826Z,100806.03
2023-02-19T19:03:07.500Z,100805.97
2023-02-19T19:08:17.497Z,100818.00
2023-02-19T19:13:27.127Z,100828.25
2023-02-19T19:18:40.639Z,100833.34
2023-02-19T19:23:51.200Z,100833.28
2023-02-19T19:29:04.651Z,100844.47
2023-02-19T19:34:20.471Z,100844.41
2023-02-19T19:39:30.294Z,100848.66
2023-02-19T19:44:43.602Z,100848.66
2023-02-19T19:49:54.386Z,100846.88
2023-02-19T19:55:04.784Z,100855.44
2023-02-19T20:00:19.677Z,100851.09
2023-02-19T20:05:30.374Z,100855.31
2023-02-19T20:10:46.347Z,100865.56
2023-02-19T20:15:56.056Z,100868.09
2023-02-19T20:21:10.728Z,100871.47
2023-02-19T20:26:29.778Z,100882.69
2023-02-19T20:31:39.152Z,100888.59
2023-02-19T20:36:51.614Z,100882.47
2023-02-19T20:42:05.940Z,100900.47
2023-02-19T20:47:17.672Z,100904.78
2023-02-19T20:52:30.701Z,100916.72
2023-02-19T20:57:40.043Z,100918.44
2023-02-19T21:02:52.659Z,100921.78
2023-02-19T21:08:03.503Z,100941.50
2023-02-19T21:13:14.294Z,100926.84
2023-02-19T21:18:23.912Z,100932.84
2023-02-19T21:23:34.340Z,100923.44
2023-02-19T21:28:43.404Z,100931.03
2023-02-19T21:33:51.284Z,100937.84
2023-02-19T21:39:00.674Z,100934.28
2023-02-19T21:44:09.170Z,100937.72
2023-02-19T21:49:18.701Z,100936.84
2023-02-19T21:54:29.192Z,100940.28
2023-02-19T21:59:36.270Z,100950.56
2023-02-19T22:04:43.430Z,100949.72
2023-02-19T22:09:53.478Z,100961.72
2023-02-19T22:15:00.310Z,100956.56
2023-02-19T22:20:08.730Z,100950.56
2023-02-19T22:25:19.941Z,100954.00
2023-02-19T22:30:26.405Z,100947.94
2023-02-19T22:35:32.807Z,100938.56
2023-02-19T22:40:41.029Z,100931.69
2023-02-19T22:45:48.199Z,100943.72
2023-02-19T22:50:55.300Z,100949.72
2023-02-19T22:56:03.348Z,100941.19
2023-02-19T23:01:10.035Z,100939.50
2023-02-19T23:06:16.932Z,100937.78
2023-02-19T23:11:27.637Z,100940.38
2023-02-19T23:16:36.221Z,100935.31
2023-02-19T23:21:45.312Z,100943.91
2023-02-19T23:26:54.936Z,100931.09
2023-02-19T23:32:01.858Z,100936.25
2023-02-19T23:37:08.171Z,100932.00
2023-02-19T23:42:20.964Z,100918.28
2023-02-19T23:47:30.646Z,100920.84
2023-02-19T23:52:37.255Z,100913.19
2023-02-19T23:57:47.187Z,100902.06
